»·PEaware :: CFS3035 KIFP-KBUR

CFS3035 :: KIFP-KBUR

FLIGHT INFORMATION

Flight Status: Arrived
Operator: Unknown
More flights by this operator :: More flights under this callsign
Pilot: Jamie M. (16133)
Aircraft: DEHAVILLAND DASH 8 400
(DH8D)
More flights by this aircraft type
Origin: KIFP Laughlin/Bullhead Intl
United States
Destination: KBUR Bob Hope-Burbank
United States
More flights between these airports :: More routes between these airports
Route: +EED HEC LYNXX8
File this flight plan on PilotEdge
Remarks:
Altitude:
(Current/Filed)
20,000ft
Speed:
(Current/Filed)
327kts
Departed: 29-Jun-18 03:42 PM
Arrived: 29-Jun-18 04:41 PM
Distance/Time
Traveled:
196nm/0:58
Distance/Time
To Go:
Arrived

Flight Plot

Page will automatically refresh every two minutes.

Flight plan parsing failed; only flown route is shown


Map Options




Map Legend


Flown Route
Filed Route
Departure Airport
Arrival Airport
Navaid (VOR, NDB)
Fix

Horizontal Profiles

Position Reports

Time Latitude Longitude Heading Altitude Ground
Speed
29-Jun-18 14:32 35.156384 -114.556261 86 648ft 0kts
29-Jun-18 14:33 35.156384 -114.556261 86 648ft 0kts
29-Jun-18 14:34 35.156384 -114.556261 86 648ft 0kts
29-Jun-18 14:35 35.156384 -114.556261 86 648ft 0kts
29-Jun-18 14:36 35.156384 -114.556261 86 648ft 0kts
29-Jun-18 14:37 35.156384 -114.556261 86 648ft 0kts
29-Jun-18 14:38 35.156384 -114.556261 86 648ft 0kts
29-Jun-18 14:39 35.156384 -114.556261 86 648ft 0kts
29-Jun-18 14:40 35.156384 -114.556261 86 648ft 0kts
29-Jun-18 14:41 35.156384 -114.556261 86 648ft 0kts
29-Jun-18 14:42 35.156384 -114.556261 86 648ft 0kts
29-Jun-18 14:43 35.156384 -114.556261 86 648ft 0kts
29-Jun-18 14:44 35.156384 -114.556261 86 648ft 0kts
29-Jun-18 14:45 35.156384 -114.556261 86 648ft 0kts
29-Jun-18 14:46 35.156384 -114.556261 86 648ft 0kts
29-Jun-18 14:47 35.156384 -114.556261 86 648ft 0kts
29-Jun-18 14:48 35.156384 -114.556261 86 648ft 0kts
29-Jun-18 14:49 35.156384 -114.556261 86 648ft 0kts
29-Jun-18 14:50 35.156384 -114.556261 86 648ft 0kts
29-Jun-18 14:52 35.156384 -114.556261 86 648ft 0kts
29-Jun-18 14:53 35.156384 -114.556261 86 648ft 0kts
29-Jun-18 14:54 35.156384 -114.556261 86 648ft 0kts
29-Jun-18 14:55 35.156384 -114.556261 86 648ft 0kts
29-Jun-18 14:56 35.156384 -114.556261 86 648ft 0kts
29-Jun-18 14:56 35.156384 -114.556261 86 648ft 0kts
29-Jun-18 14:58 35.156384 -114.556261 86 648ft 0kts
29-Jun-18 14:59 35.156384 -114.556261 86 648ft 0kts
29-Jun-18 15:00 35.156384 -114.556261 86 648ft 0kts
29-Jun-18 15:01 35.156384 -114.556261 86 648ft 0kts
29-Jun-18 15:01 35.156384 -114.556261 86 648ft 0kts
29-Jun-18 15:02 35.156384 -114.556261 86 648ft 0kts
29-Jun-18 15:03 35.156384 -114.556261 86 648ft 0kts
29-Jun-18 15:04 35.156384 -114.556261 86 648ft 0kts
29-Jun-18 15:05 35.156384 -114.556261 86 648ft 0kts
29-Jun-18 15:07 35.156384 -114.556261 86 648ft 0kts
29-Jun-18 15:07 35.156384 -114.556261 86 648ft 0kts
29-Jun-18 15:08 35.156384 -114.556261 86 648ft 0kts
29-Jun-18 15:09 35.156384 -114.556261 86 648ft 0kts
29-Jun-18 15:10 35.156384 -114.556261 86 648ft 0kts
29-Jun-18 15:11 35.156384 -114.556261 86 648ft 0kts
29-Jun-18 15:12 35.156384 -114.556261 86 648ft 0kts
29-Jun-18 15:13 35.156384 -114.556261 86 648ft 0kts
29-Jun-18 15:14 35.156384 -114.556261 86 648ft 0kts
29-Jun-18 15:15 35.156384 -114.556261 86 648ft 0kts
29-Jun-18 15:16 35.156384 -114.556261 86 648ft 0kts
29-Jun-18 15:17 35.156384 -114.556261 86 648ft 0kts
29-Jun-18 15:18 35.156384 -114.556261 86 648ft 0kts
29-Jun-18 15:19 35.156384 -114.556261 86 648ft 0kts
29-Jun-18 15:20 35.156384 -114.556261 86 648ft 0kts
29-Jun-18 15:21 35.156384 -114.556261 86 648ft 0kts
29-Jun-18 15:22 35.156384 -114.556261 86 648ft 0kts
29-Jun-18 15:23 35.156384 -114.556261 86 648ft 0kts
29-Jun-18 15:24 35.156384 -114.556261 86 648ft 0kts
29-Jun-18 15:25 35.156384 -114.556261 86 648ft 0kts
29-Jun-18 15:26 35.156384 -114.556261 86 648ft 0kts
29-Jun-18 15:27 35.156384 -114.556261 86 648ft 0kts
29-Jun-18 15:28 35.156384 -114.556261 86 648ft 0kts
29-Jun-18 15:29 35.156384 -114.556261 86 648ft 0kts
29-Jun-18 15:30 35.156384 -114.556261 86 648ft 0kts
29-Jun-18 15:31 35.156384 -114.556261 86 648ft 0kts
29-Jun-18 15:32 35.156384 -114.556261 86 648ft 0kts
29-Jun-18 15:33 35.156384 -114.556261 86 648ft 0kts
29-Jun-18 15:34 35.156443 -114.556143 36 648ft 4kts
29-Jun-18 15:35 35.159459 -114.557156 257 648ft 11kts
29-Jun-18 15:36 35.163214 -114.558630 354 648ft 17kts
29-Jun-18 15:37 35.166195 -114.559143 266 648ft 0kts
29-Jun-18 15:38 35.166195 -114.559142 266 648ft 0kts
29-Jun-18 15:39 35.166195 -114.559136 266 648ft 0kts
29-Jun-18 15:40 35.166195 -114.559136 266 648ft 0kts
29-Jun-18 15:41 35.166195 -114.559136 266 648ft 0kts
29-Jun-18 15:42 35.163689 -114.560028 175 648ft 60kts
29-Jun-18 15:43 35.129578 -114.558778 180 2025ft 138kts
29-Jun-18 15:44 35.086638 -114.555969 176 4118ft 157kts
29-Jun-18 15:45 35.037968 -114.551543 176 5897ft 193kts
29-Jun-18 15:46 34.984781 -114.546683 176 7003ft 242kts
29-Jun-18 15:47 34.921451 -114.537771 162 8561ft 244kts
29-Jun-18 15:48 34.865066 -114.510681 165 10160ft 242kts
29-Jun-18 15:49 34.824236 -114.554369 267 11677ft 247kts
29-Jun-18 15:50 34.826827 -114.633854 271 13056ft 251kts
29-Jun-18 15:51 34.828276 -114.692597 272 13738ft 246kts
29-Jun-18 15:52 34.831772 -114.767351 273 14826ft 208kts
29-Jun-18 15:53 34.834236 -114.843670 272 15887ft 237kts
29-Jun-18 15:54 34.833843 -114.925202 267 17234ft 242kts
29-Jun-18 15:55 34.830458 -115.008072 267 18429ft 247kts
29-Jun-18 15:56 34.826587 -115.093749 267 19278ft 259kts
29-Jun-18 15:57 34.822287 -115.183460 267 19790ft 275kts
29-Jun-18 15:58 34.817445 -115.280674 267 19825ft 297kts
29-Jun-18 15:59 34.812389 -115.383026 268 19832ft 309kts
29-Jun-18 16:00 34.810640 -115.489450 270 19843ft 317kts
29-Jun-18 16:01 34.808931 -115.597709 269 19855ft 322kts
29-Jun-18 16:02 34.806882 -115.706563 270 19858ft 322kts
29-Jun-18 16:03 34.804810 -115.815975 269 19875ft 324kts
29-Jun-18 16:04 34.802893 -115.925974 270 19883ft 326kts
29-Jun-18 16:05 34.801158 -116.036234 270 19889ft 326kts
29-Jun-18 16:06 34.799709 -116.147023 270 19882ft 327kts
29-Jun-18 16:07 34.798505 -116.257583 271 19918ft 328kts
29-Jun-18 16:08 34.797603 -116.369008 271 19913ft 329kts
29-Jun-18 16:09 34.793703 -116.480553 263 19886ft 330kts
29-Jun-18 16:10 34.775194 -116.589589 260 19876ft 331kts
29-Jun-18 16:11 34.758823 -116.699894 262 19857ft 331kts
29-Jun-18 16:12 34.743519 -116.809842 262 19839ft 325kts
29-Jun-18 16:13 34.728431 -116.912342 262 19857ft 290kts
29-Jun-18 16:14 34.714543 -117.003318 262 19896ft 265kts
29-Jun-18 16:15 34.703119 -117.091902 265 19919ft 266kts
29-Jun-18 16:16 34.702023 -117.184050 273 19309ft 286kts
29-Jun-18 16:17 34.703717 -117.276459 274 18175ft 261kts
29-Jun-18 16:18 34.706719 -117.364073 274 17089ft 260kts
29-Jun-18 16:19 34.701841 -117.449496 261 15972ft 245kts
29-Jun-18 16:20 34.688824 -117.534883 262 14919ft 280kts
29-Jun-18 16:21 34.675079 -117.633985 262 13743ft 312kts
29-Jun-18 16:22 34.660985 -117.740384 262 12548ft 324kts
29-Jun-18 16:23 34.647372 -117.839169 262 11557ft 267kts
29-Jun-18 16:24 34.635943 -117.921786 262 10909ft 244kts
29-Jun-18 16:25 34.625316 -118.003592 262 10705ft 246kts
29-Jun-18 16:26 34.614641 -118.086846 262 10511ft 252kts
29-Jun-18 16:27 34.596894 -118.169458 256 10309ft 250kts
29-Jun-18 16:28 34.579995 -118.250204 258 10124ft 249kts
29-Jun-18 16:29 34.563426 -118.331589 257 9175ft 244kts
29-Jun-18 16:30 34.547702 -118.411094 258 8195ft 240kts
29-Jun-18 16:31 34.532637 -118.488434 258 8040ft 242kts
29-Jun-18 16:32 34.516419 -118.568193 245 8026ft 236kts
29-Jun-18 16:33 34.460040 -118.593940 182 7176ft 241kts
29-Jun-18 16:34 34.396218 -118.576800 140 6067ft 236kts
29-Jun-18 16:35 34.368055 -118.509881 113 5097ft 216kts
29-Jun-18 16:36 34.349431 -118.452397 112 4975ft 149kts
29-Jun-18 16:37 34.324415 -118.404709 135 4565ft 185kts
29-Jun-18 16:38 34.284980 -118.380392 171 3119ft 170kts
29-Jun-18 16:39 34.244526 -118.369242 164 1487ft 126kts
29-Jun-18 16:40 34.210469 -118.359974 168 746ft 111kts
29-Jun-18 16:41 34.196791 -118.357041 266 728ft 9kts
29-Jun-18 16:42 34.196793 -118.358649 272 728ft 18kts
29-Jun-18 16:43 34.196710 -118.365546 192 728ft 9kts
29-Jun-18 16:44 34.195984 -118.365584 179 728ft 0kts
29-Jun-18 16:45 34.195984 -118.365584 179 728ft 0kts
29-Jun-18 16:46 34.195984 -118.365584 179 728ft 0kts
29-Jun-18 16:47 34.195984 -118.365584 179 728ft 0kts
29-Jun-18 16:48 34.195984 -118.365584 179 728ft 0kts
29-Jun-18 16:49 34.195984 -118.365584 179 728ft 0kts

Navigation Log

Ident Type
Flight plan parsing failed, navigation log unavailable